Time,TemperatureF,DewpointF,PressureIn,WindDirection,WindDirectionDegrees,WindSpeedMPH,WindSpeedGustMPH,Humidity,HourlyPrecipIn,Conditions,Clouds,dailyrainin,SoftwareType,DateUTC
2013-02-18 00:00:00,24.5,16.1,29.61,SE,142,12.0,20.0,70,0.00,,,0.00,VWS V15.00,2013-02-18 06:00:00,
2013-02-18 00:03:00,24.4,16.0,29.61,SE,144,15.0,17.0,70,0.00,,CLR,0.00,VWS V14.01,2013-02-18 06:03:00,
2013-02-18 00:08:00,24.5,16.5,29.61,SE,140,19.0,25.0,71,0.00,,CLR,0.00,VWS V14.01,2013-02-18 06:08:00,
2013-02-18 00:13:00,24.5,16.5,29.61,SE,144,13.0,25.0,71,0.00,,CLR,0.00,VWS V14.01,2013-02-18 06:13:00,
2013-02-18 00:15:00,24.5,16.5,29.60,SE,143,20.0,25.0,71,0.00,,,0.00,VWS V15.00,2013-02-18 06:15:00,
2013-02-18 00:18:00,24.5,16.5,29.60,SSE,168,18.0,20.0,71,0.00,,CLR,0.00,VWS V14.01,2013-02-18 06:18:00,
2013-02-18 00:23:00,24.5,16.5,29.60,SSE,151,17.0,22.0,71,0.00,,CLR,0.00,VWS V14.01,2013-02-18 06:23:00,
2013-02-18 00:28:00,24.7,16.6,29.60,SE,141,20.0,23.0,71,0.00,,CLR,0.00,VWS V14.01,2013-02-18 06:28:00,
2013-02-18 00:30:00,24.7,16.6,29.59,SSE,156,16.0,23.0,71,0.00,,,0.00,VWS V15.00,2013-02-18 06:30:00,
2013-02-18 00:33:00,24.7,16.6,29.59,SE,142,17.0,21.0,71,0.00,,CLR,0.00,VWS V14.01,2013-02-18 06:33:00,
2013-02-18 00:38:00,24.7,16.6,29.59,SE,143,22.0,23.0,71,0.00,,CLR,0.00,VWS V14.01,2013-02-18 06:38:00,
2013-02-18 00:43:00,24.7,16.6,29.59,SSE,157,16.0,23.0,71,0.00,,CLR,0.00,VWS V14.01,2013-02-18 06:43:00,
2013-02-18 00:45:00,24.7,16.6,29.58,ESE,122,19.0,23.0,71,0.00,,,0.00,VWS V15.00,2013-02-18 06:45:00,
2013-02-18 00:48:00,24.7,16.6,29.58,SSE,159,17.0,25.0,71,0.00,,CLR,0.00,VWS V14.01,2013-02-18 06:48:00,
2013-02-18 00:53:00,24.7,17.0,29.58,SE,139,16.0,25.0,72,0.00,,CLR,0.00,VWS V14.01,2013-02-18 06:53:00,
2013-02-18 00:58:00,24.7,16.6,29.58,SSE,150,12.0,25.0,71,0.00,,CLR,0.00,VWS V14.01,2013-02-18 06:58:00,
2013-02-18 01:00:00,24.7,17.0,29.58,SSE,150,14.0,25.0,72,0.00,,,0.00,VWS V15.00,2013-02-18 07:00:00,
2013-02-18 01:03:00,24.5,16.8,29.58,SSE,153,13.0,18.0,72,0.00,,CLR,0.00,VWS V14.01,2013-02-18 07:03:00,
2013-02-18 01:08:00,24.7,17.0,29.58,SSE,149,14.0,19.0,72,0.00,,CLR,0.00,VWS V14.01,2013-02-18 07:08:00,
2013-02-18 01:13:00,24.7,17.0,29.58,SSE,151,16.0,19.0,72,0.00,,CLR,0.00,VWS V14.01,2013-02-18 07:13:00,
2013-02-18 01:15:00,24.8,17.1,29.57,SE,146,13.0,19.0,72,0.00,,,0.00,VWS V15.00,2013-02-18 07:15:00,
2013-02-18 01:19:00,24.7,17.0,29.57,SSE,149,16.0,18.0,72,0.00,,CLR,0.00,VWS V14.01,2013-02-18 07:19:00,
2013-02-18 01:24:00,24.8,17.1,29.57,SE,144,7.0,24.0,72,0.00,,CLR,0.00,VWS V14.01,2013-02-18 07:24:00,
2013-02-18 01:29:00,24.7,17.0,29.57,SSE,157,17.0,24.0,72,0.00,,CLR,0.00,VWS V14.01,2013-02-18 07:29:00,
2013-02-18 01:30:00,24.8,17.1,29.56,SE,145,16.0,24.0,72,0.00,,,0.00,VWS V15.00,2013-02-18 07:30:00,
2013-02-18 01:34:00,25.0,17.3,29.56,SE,142,12.0,20.0,72,0.00,,CLR,0.00,VWS V14.01,2013-02-18 07:34:00,
2013-02-18 01:39:00,24.8,17.1,29.56,SSE,152,15.0,24.0,72,0.00,,CLR,0.00,VWS V14.01,2013-02-18 07:39:00,
2013-02-18 01:44:00,25.0,17.3,29.56,SSE,156,11.0,24.0,72,0.00,,CLR,0.00,VWS V14.01,2013-02-18 07:44:00,
2013-02-18 01:45:00,25.0,17.3,29.55,SSE,152,15.0,24.0,72,0.00,,,0.00,VWS V15.00,2013-02-18 07:45:00,
2013-02-18 01:49:00,25.0,17.3,29.55,SE,137,15.0,22.0,72,0.00,,CLR,0.00,VWS V14.01,2013-02-18 07:49:00,
2013-02-18 01:54:00,25.0,17.3,29.55,SSE,156,13.0,22.0,72,0.00,,CLR,0.00,VWS V14.01,2013-02-18 07:54:00,
2013-02-18 01:59:00,25.1,17.4,29.55,SE,139,14.0,22.0,72,0.00,,CLR,0.00,VWS V14.01,2013-02-18 07:59:00,
2013-02-18 02:00:00,25.1,17.4,29.54,SSE,148,18.0,23.0,72,0.00,,,0.00,VWS V15.00,2013-02-18 08:00:00,
2013-02-18 02:04:00,25.3,17.5,29.54,SE,142,15.0,18.0,72,0.00,,CLR,0.00,VWS V14.01,2013-02-18 08:04:00,
2013-02-18 02:10:00,25.3,17.5,29.54,SE,137,16.0,20.0,72,0.00,,CLR,0.00,VWS V14.01,2013-02-18 08:10:00,
2013-02-18 02:15:00,25.1,17.4,29.54,SE,145,17.0,20.0,72,0.00,,CLR,0.00,VWS V14.01,2013-02-18 08:15:00,
2013-02-18 02:20:00,25.0,17.3,29.53,SE,142,21.0,21.0,72,0.00,,CLR,0.00,VWS V14.01,2013-02-18 08:20:00,
2013-02-18 02:25:00,25.1,17.4,29.53,SE,142,14.0,21.0,72,0.00,,CLR,0.00,VWS V14.01,2013-02-18 08:25:00,
2013-02-18 02:30:00,25.0,17.3,29.53,SE,141,14.0,21.0,72,0.00,,CLR,0.00,VWS V14.01,2013-02-18 08:30:00,
2013-02-18 02:35:00,25.0,17.3,29.53,SSE,152,12.0,20.0,72,0.00,,CLR,0.00,VWS V14.01,2013-02-18 08:35:00,
2013-02-18 02:40:00,25.0,17.3,29.53,SE,142,19.0,20.0,72,0.00,,CLR,0.00,VWS V14.01,2013-02-18 08:40:00,
2013-02-18 02:45:00,25.0,17.3,29.53,SE,141,15.0,20.0,72,0.00,,CLR,0.00,VWS V14.01,2013-02-18 08:45:00,
2013-02-18 02:50:00,25.0,17.6,29.52,SSE,152,14.0,19.0,73,0.00,,CLR,0.00,VWS V14.01,2013-02-18 08:50:00,
2013-02-18 02:55:00,25.1,17.4,29.52,SE,144,10.0,20.0,72,0.00,,CLR,0.00,VWS V14.01,2013-02-18 08:55:00,
2013-02-18 03:00:00,25.0,17.3,29.52,SSE,156,16.0,20.0,72,0.00,,CLR,0.00,VWS V14.01,2013-02-18 09:00:00,
2013-02-18 03:05:00,25.0,17.6,29.52,SE,143,11.0,19.0,73,0.00,,CLR,0.00,VWS V14.01,2013-02-18 09:05:00,
2013-02-18 03:10:00,25.0,17.6,29.52,SSE,157,18.0,20.0,73,0.00,,CLR,0.00,VWS V14.01,2013-02-18 09:10:00,
2013-02-18 03:15:00,25.0,17.6,29.52,SE,144,20.0,22.0,73,0.00,,CLR,0.00,VWS V14.01,2013-02-18 09:15:00,
2013-02-18 03:20:00,25.1,17.4,29.51,SE,136,18.0,20.0,72,0.00,,CLR,0.00,VWS V14.01,2013-02-18 09:20:00,
2013-02-18 03:25:00,25.0,17.6,29.51,SSE,149,17.0,20.0,73,0.00,,CLR,0.00,VWS V14.01,2013-02-18 09:25:00,
2013-02-18 03:30:00,24.8,17.4,29.51,SSE,163,14.0,22.0,73,0.00,,CLR,0.00,VWS V14.01,2013-02-18 09:30:00,
2013-02-18 03:35:00,24.8,17.4,29.51,SE,139,14.0,20.0,73,0.00,,CLR,0.00,VWS V14.01,2013-02-18 09:35:00,
2013-02-18 03:40:00,24.8,17.4,29.51,SSE,158,13.0,21.0,73,0.00,,CLR,0.00,VWS V14.01,2013-02-18 09:40:00,
2013-02-18 03:45:00,24.8,17.4,29.50,South,172,12.0,21.0,73,0.00,,CLR,0.00,VWS V14.01,2013-02-18 09:45:00,
2013-02-18 03:50:00,25.0,17.6,29.50,SSE,151,10.0,18.0,73,0.00,,CLR,0.00,VWS V14.01,2013-02-18 09:50:00,
2013-02-18 03:55:00,25.0,17.6,29.50,SSE,163,12.0,19.0,73,0.00,,CLR,0.00,VWS V14.01,2013-02-18 09:55:00,
2013-02-18 04:00:00,24.8,17.4,29.50,SSE,161,16.0,19.0,73,0.00,,,0.00,VWS V15.00,2013-02-18 10:00:00,
2013-02-18 04:01:00,24.8,17.4,29.50,SSE,150,13.0,19.0,73,0.00,,CLR,0.00,VWS V14.01,2013-02-18 10:01:00,
2013-02-18 04:06:00,24.8,17.7,29.50,SSE,148,13.0,17.0,74,0.00,,CLR,0.00,VWS V14.01,2013-02-18 10:06:00,
2013-02-18 04:11:00,24.8,17.7,29.50,SE,146,17.0,18.0,74,0.00,,CLR,0.00,VWS V14.01,2013-02-18 10:11:00,
2013-02-18 04:15:00,25.1,18.0,29.49,SSE,151,16.0,19.0,74,0.00,,,0.00,VWS V15.00,2013-02-18 10:15:00,
2013-02-18 04:16:00,25.0,17.9,29.49,SSE,149,7.0,19.0,74,0.00,,CLR,0.00,VWS V14.01,2013-02-18 10:16:00,
2013-02-18 04:21:00,25.3,18.2,29.49,SSE,151,17.0,21.0,74,0.00,,CLR,0.00,VWS V14.01,2013-02-18 10:21:00,
2013-02-18 04:26:00,25.4,18.3,29.49,SE,138,12.0,21.0,74,0.00,,CLR,0.00,VWS V14.01,2013-02-18 10:26:00,
2013-02-18 04:30:00,25.6,18.5,29.48,SSE,148,17.0,23.0,74,0.00,,,0.00,VWS V15.00,2013-02-18 10:30:00,
2013-02-18 04:31:00,25.6,18.5,29.48,SE,139,19.0,23.0,74,0.00,,CLR,0.00,VWS V14.01,2013-02-18 10:31:00,
2013-02-18 04:36:00,25.8,18.7,29.48,SSE,149,17.0,21.0,74,0.00,,CLR,0.00,VWS V14.01,2013-02-18 10:36:00,
2013-02-18 04:41:00,26.0,18.9,29.48,SSE,148,17.0,24.0,74,0.00,,CLR,0.00,VWS V14.01,2013-02-18 10:41:00,
2013-02-18 04:45:00,26.3,19.2,29.47,SE,132,16.0,24.0,74,0.00,,,0.00,VWS V15.00,2013-02-18 10:45:00,
2013-02-18 04:47:00,26.3,19.1,29.47,SE,139,17.0,19.0,74,0.00,,CLR,0.00,VWS V14.01,2013-02-18 10:47:00,
2013-02-18 04:52:00,26.3,19.1,29.47,SE,137,18.0,21.0,74,0.00,,CLR,0.00,VWS V14.01,2013-02-18 10:52:00,
2013-02-18 04:57:00,26.3,19.5,29.47,SE,146,22.0,22.0,75,0.00,,CLR,0.00,VWS V14.01,2013-02-18 10:57:00,
2013-02-18 05:00:00,26.3,19.5,29.48,SE,143,14.0,22.0,75,0.00,,,0.00,VWS V15.00,2013-02-18 11:00:00,
2013-02-18 05:02:00,26.3,19.5,29.48,SE,142,14.0,16.0,75,0.00,,CLR,0.00,VWS V14.01,2013-02-18 11:02:00,
2013-02-18 05:07:00,26.4,19.6,29.48,SE,136,17.0,19.0,75,0.00,,CLR,0.00,VWS V14.01,2013-02-18 11:07:00,
2013-02-18 05:12:00,26.6,19.8,29.48,SSE,156,15.0,20.0,75,0.00,,CLR,0.00,VWS V14.01,2013-02-18 11:12:00,
2013-02-18 05:15:00,26.7,19.5,29.48,SSE,153,14.0,20.0,74,0.00,,,0.00,VWS V15.00,2013-02-18 11:15:00,
2013-02-18 05:17:00,26.7,19.5,29.48,SSE,154,11.0,15.0,74,0.00,,CLR,0.00,VWS V14.01,2013-02-18 11:17:00,
2013-02-18 05:22:00,26.7,19.5,29.48,SE,146,12.0,15.0,74,0.00,,CLR,0.00,VWS V14.01,2013-02-18 11:22:00,
2013-02-18 05:27:00,26.7,19.5,29.48,SSE,165,10.0,15.0,74,0.00,,CLR,0.00,VWS V14.01,2013-02-18 11:27:00,
2013-02-18 05:30:00,26.7,19.9,29.48,South,175,10.0,15.0,75,0.00,,,0.00,VWS V15.00,2013-02-18 11:30:00,
2013-02-18 05:33:00,26.7,19.9,29.48,SSE,155,12.0,13.0,75,0.00,,CLR,0.00,VWS V14.01,2013-02-18 11:33:00,
2013-02-18 05:38:00,26.7,19.9,29.48,SSE,147,11.0,17.0,75,0.00,,CLR,0.00,VWS V14.01,2013-02-18 11:38:00,
2013-02-18 05:43:00,26.9,20.0,29.48,SSE,159,9.0,17.0,75,0.00,,CLR,0.00,VWS V14.01,2013-02-18 11:43:00,
2013-02-18 05:45:00,26.9,20.0,29.48,South,169,13.0,17.0,75,0.00,,,0.00,VWS V15.00,2013-02-18 11:45:00,
2013-02-18 05:48:00,27.0,20.1,29.48,SE,146,13.0,16.0,75,0.00,,CLR,0.00,VWS V14.01,2013-02-18 11:48:00,
2013-02-18 05:53:00,27.0,20.1,29.48,SSE,148,12.0,17.0,75,0.00,,CLR,0.00,VWS V14.01,2013-02-18 11:53:00,
2013-02-18 05:58:00,27.0,20.1,29.48,SSE,148,17.0,19.0,75,0.00,,CLR,0.00,VWS V14.01,2013-02-18 11:58:00,
2013-02-18 06:00:00,27.0,20.5,29.47,SSE,148,16.0,19.0,76,0.00,,,0.00,VWS V15.00,2013-02-18 12:00:00,
2013-02-18 06:03:00,27.2,20.6,29.47,SE,144,17.0,18.0,76,0.00,,BKN070,0.00,VWS V14.01,2013-02-18 12:03:00,
2013-02-18 06:08:00,27.2,20.6,29.47,SSE,147,15.0,19.0,76,0.00,,BKN070,0.00,VWS V14.01,2013-02-18 12:08:00,
2013-02-18 06:13:00,27.3,21.7,29.47,SSE,150,12.0,19.0,79,0.00,,BKN070,0.00,VWS V14.01,2013-02-18 12:13:00,
2013-02-18 06:15:00,27.3,20.4,29.47,SE,144,11.0,19.0,75,0.00,,,0.00,VWS V15.00,2013-02-18 12:15:00,
2013-02-18 06:18:00,27.3,20.4,29.47,SSE,149,11.0,15.0,75,0.00,,BKN070,0.00,VWS V14.01,2013-02-18 12:18:00,
2013-02-18 06:23:00,27.3,20.8,29.47,SE,142,12.0,16.0,76,0.00,,BKN070,0.00,VWS V14.01,2013-02-18 12:23:00,
2013-02-18 06:28:00,27.3,20.8,29.47,SE,130,14.0,19.0,76,0.00,,BKN070,0.00,VWS V14.01,2013-02-18 12:28:00,
2013-02-18 06:30:00,27.3,20.8,29.46,SE,139,13.0,19.0,76,0.00,,,0.00,VWS V15.00,2013-02-18 12:30:00,
2013-02-18 06:33:00,27.3,20.8,29.46,SSE,147,13.0,17.0,76,0.00,,OVC020,0.00,VWS V14.01,2013-02-18 12:33:00,
2013-02-18 06:38:00,27.3,20.8,29.46,SE,145,11.0,17.0,76,0.00,,OVC020,0.00,VWS V14.01,2013-02-18 12:38:00,
2013-02-18 06:43:00,27.3,20.8,29.46,SSE,149,15.0,18.0,76,0.00,,OVC020,0.00,VWS V14.01,2013-02-18 12:43:00,
2013-02-18 06:45:00,27.5,20.9,29.47,SSE,148,14.0,19.0,76,0.00,,,0.00,VWS V15.00,2013-02-18 12:45:00,
2013-02-18 06:48:00,27.5,20.9,29.47,SSE,148,10.0,17.0,76,0.00,,OVC020,0.00,VWS V14.01,2013-02-18 12:48:00,
2013-02-18 06:53:00,27.5,20.9,29.47,SE,138,11.0,18.0,76,0.00,,OVC020,0.00,VWS V14.01,2013-02-18 12:53:00,
2013-02-18 06:58:00,27.5,21.2,29.47,SSE,153,13.0,19.0,77,0.00,,OVC020,0.00,VWS V14.01,2013-02-18 12:58:00,
2013-02-18 07:00:00,27.6,21.0,29.47,SE,142,9.0,19.0,76,0.00,,,0.00,VWS V15.00,2013-02-18 13:00:00,
2013-02-18 07:03:00,27.6,21.0,29.47,SE,143,11.0,14.0,76,0.00,,OVC020,0.00,VWS V14.01,2013-02-18 13:03:00,
2013-02-18 07:08:00,27.6,21.4,29.47,SE,145,10.0,17.0,77,0.00,,OVC020,0.00,VWS V14.01,2013-02-18 13:08:00,
2013-02-18 07:14:00,27.8,21.5,29.47,SE,141,11.0,17.0,77,0.00,,OVC020,0.00,VWS V14.01,2013-02-18 13:14:00,
2013-02-18 07:15:00,27.8,21.5,29.47,SSE,155,12.0,17.0,77,0.00,,,0.00,VWS V15.00,2013-02-18 13:15:00,
2013-02-18 07:19:00,27.8,21.5,29.47,SSE,167,6.0,12.0,77,0.00,,OVC020,0.00,VWS V14.01,2013-02-18 13:19:00,
2013-02-18 07:24:00,27.9,21.6,29.47,SSE,167,10.0,12.0,77,0.00,,OVC020,0.00,VWS V14.01,2013-02-18 13:24:00,
2013-02-18 07:29:00,28.1,21.8,29.47,South,169,11.0,14.0,77,0.00,,OVC020,0.00,VWS V14.01,2013-02-18 13:29:00,
2013-02-18 07:30:00,28.2,21.9,29.47,South,172,10.0,14.0,77,0.00,,,0.00,VWS V15.00,2013-02-18 13:30:00,
2013-02-18 07:34:00,28.2,21.9,29.47,South,172,8.0,12.0,77,0.00,,OVC018,0.00,VWS V14.01,2013-02-18 13:34:00,
2013-02-18 07:39:00,28.2,21.9,29.47,South,177,9.0,12.0,77,0.00,,OVC018,0.00,VWS V14.01,2013-02-18 13:39:00,
2013-02-18 07:44:00,28.2,21.9,29.47,South,169,10.0,12.0,77,0.00,,OVC018,0.00,VWS V14.01,2013-02-18 13:44:00,
2013-02-18 07:45:00,28.2,21.9,29.46,SSE,168,9.0,12.0,77,0.00,,,0.00,VWS V15.00,2013-02-18 13:45:00,
2013-02-18 07:49:00,28.4,22.1,29.46,SSE,163,12.0,13.0,77,0.00,,OVC018,0.00,VWS V14.01,2013-02-18 13:49:00,
2013-02-18 07:54:00,28.4,22.4,29.46,SSE,168,11.0,14.0,78,0.00,,OVC018,0.00,VWS V14.01,2013-02-18 13:54:00,
2013-02-18 08:00:00,28.4,22.1,29.46,South,180,7.0,14.0,77,0.00,,OVC018,0.00,VWS V14.01,2013-02-18 14:00:00,
2013-02-18 08:05:00,28.5,22.2,29.47,SSE,158,8.0,14.0,77,0.00,,OVC018,0.00,VWS V14.01,2013-02-18 14:05:00,
2013-02-18 08:10:00,28.7,22.4,29.47,SSE,156,11.0,14.0,77,0.00,,OVC018,0.00,VWS V14.01,2013-02-18 14:10:00,
2013-02-18 08:15:00,28.5,22.5,29.47,SSE,151,10.0,14.0,78,0.00,,OVC018,0.00,VWS V14.01,2013-02-18 14:15:00,
2013-02-18 08:20:00,28.4,22.1,29.46,SSE,148,16.0,16.0,77,0.00,,OVC018,0.00,VWS V14.01,2013-02-18 14:20:00,
2013-02-18 08:25:00,28.5,22.5,29.46,SSE,153,14.0,16.0,78,0.00,,OVC018,0.00,VWS V14.01,2013-02-18 14:25:00,
2013-02-18 08:30:00,28.5,22.5,29.46,SSE,153,8.0,16.0,78,0.00,,OVC018,0.00,VWS V14.01,2013-02-18 14:30:00,
2013-02-18 08:35:00,28.5,22.5,29.45,SSE,156,10.0,15.0,78,0.00,,OVC016,0.00,VWS V14.01,2013-02-18 14:35:00,
2013-02-18 08:40:00,28.5,22.5,29.45,SSE,167,6.0,15.0,78,0.00,,OVC016,0.00,VWS V14.01,2013-02-18 14:40:00,
2013-02-18 08:45:00,28.8,22.8,29.46,South,170,5.0,15.0,78,0.00,,OVC016,0.00,VWS V14.01,2013-02-18 14:45:00,
2013-02-18 08:50:00,29.1,23.1,29.46,South,175,6.0,11.0,78,0.00,,OVC016,0.00,VWS V14.01,2013-02-18 14:50:00,
2013-02-18 08:56:00,29.4,23.4,29.46,South,178,7.0,11.0,78,0.00,,OVC016,0.00,VWS V14.01,2013-02-18 14:56:00,
2013-02-18 09:00:00,29.5,23.2,29.47,South,183,11.0,12.0,77,0.00,,,0.00,VWS V15.00,2013-02-18 15:00:00,
2013-02-18 09:01:00,29.4,23.1,29.47,South,180,11.0,12.0,77,0.00,,OVC016,0.00,VWS V14.01,2013-02-18 15:01:00,
2013-02-18 09:06:00,29.5,23.2,29.47,South,182,8.0,14.0,77,0.00,,OVC014,0.00,VWS V14.01,2013-02-18 15:06:00,
2013-02-18 09:11:00,29.5,23.2,29.47,South,184,6.0,14.0,77,0.00,,OVC014,0.00,VWS V14.01,2013-02-18 15:11:00,
2013-02-18 09:15:00,29.7,23.4,29.47,SSW,193,6.0,14.0,77,0.00,,,0.00,VWS V15.00,2013-02-18 15:15:00,
2013-02-18 09:16:00,29.7,23.4,29.47,SSW,193,9.0,14.0,77,0.00,,OVC014,0.00,VWS V14.01,2013-02-18 15:16:00,
2013-02-18 09:21:00,29.8,23.5,29.47,SSW,201,11.0,11.0,77,0.00,,OVC014,0.00,VWS V14.01,2013-02-18 15:21:00,
2013-02-18 09:26:00,29.8,23.5,29.47,SSW,194,9.0,12.0,77,0.00,,OVC014,0.00,VWS V14.01,2013-02-18 15:26:00,
2013-02-18 09:30:00,29.8,23.8,29.47,South,189,6.0,12.0,78,0.00,,,0.00,VWS V15.00,2013-02-18 15:30:00,
2013-02-18 09:31:00,29.8,23.8,29.47,South,189,6.0,12.0,78,0.00,,OVC014,0.00,VWS V14.01,2013-02-18 15:31:00,
2013-02-18 09:36:00,30.1,24.1,29.47,SSW,202,6.0,11.0,78,0.00,,OVC019,0.00,VWS V14.01,2013-02-18 15:36:00,
2013-02-18 09:41:00,30.4,24.1,29.47,SSW,202,4.0,11.0,77,0.00,,OVC019,0.00,VWS V14.01,2013-02-18 15:41:00,
2013-02-18 09:45:00,30.9,24.9,29.48,SSW,204,0.0,11.0,78,0.00,,,0.00,VWS V15.00,2013-02-18 15:45:00,
2013-02-18 09:46:00,30.9,24.9,29.48,SSW,203,0.0,11.0,78,0.00,,OVC019,0.00,VWS V14.01,2013-02-18 15:46:00,
2013-02-18 09:51:00,31.2,24.5,29.48,SW,222,3.0,10.0,76,0.00,,OVC019,0.00,VWS V14.01,2013-02-18 15:51:00,
2013-02-18 09:56:00,31.8,24.8,29.48,SW,220,2.0,10.0,75,0.00,,OVC019,0.00,VWS V14.01,2013-02-18 15:56:00,
2013-02-18 10:00:00,32.1,25.1,29.48,SW,215,5.0,10.0,75,0.00,,,0.00,VWS V15.00,2013-02-18 16:00:00,
2013-02-18 10:01:00,32.1,25.1,29.48,SW,215,5.0,10.0,75,0.00,,OVC019,0.00,VWS V14.01,2013-02-18 16:01:00,
2013-02-18 10:06:00,32.1,25.1,29.48,SW,230,3.0,10.0,75,0.00,,OVC016,0.00,VWS V14.01,2013-02-18 16:06:00,
2013-02-18 10:12:00,31.9,24.9,29.48,SW,225,2.0,10.0,75,0.00,,OVC016,0.00,VWS V14.01,2013-02-18 16:12:00,
2013-02-18 10:15:00,31.9,24.9,29.48,SW,230,6.0,10.0,75,0.00,,,0.00,VWS V15.00,2013-02-18 16:15:00,
2013-02-18 10:17:00,31.9,24.9,29.48,SW,231,7.0,7.0,75,0.00,,OVC016,0.00,VWS V14.01,2013-02-18 16:17:00,
2013-02-18 10:22:00,31.9,25.2,29.48,West,259,10.0,10.0,76,0.00,,OVC016,0.00,VWS V14.01,2013-02-18 16:22:00,
2013-02-18 10:27:00,31.8,24.8,29.48,WSW,243,7.0,12.0,75,0.00,,OVC016,0.00,VWS V14.01,2013-02-18 16:27:00,
2013-02-18 10:30:00,31.6,24.9,29.48,WSW,248,2.0,13.0,76,0.00,,,0.00,VWS V15.00,2013-02-18 16:30:00,
2013-02-18 10:32:00,31.5,24.8,29.48,WSW,249,4.0,10.0,76,0.00,,OVC011,0.00,VWS V14.01,2013-02-18 16:32:00,
2013-02-18 10:37:00,31.5,25.1,29.48,WSW,242,12.0,13.0,77,0.00,,OVC011,0.00,VWS V14.01,2013-02-18 16:37:00,
2013-02-18 10:42:00,31.5,25.1,29.48,WSW,254,2.0,13.0,77,0.00,,OVC011,0.00,VWS V14.01,2013-02-18 16:42:00,
2013-02-18 10:45:00,31.5,25.1,29.48,SW,236,15.0,15.0,77,0.00,,,0.00,VWS V15.00,2013-02-18 16:45:00,
2013-02-18 10:47:00,31.5,25.1,29.48,WSW,254,6.0,15.0,77,0.00,,OVC011,0.00,VWS V14.01,2013-02-18 16:47:00,
2013-02-18 10:52:00,31.5,25.1,29.48,WSW,252,4.0,15.0,77,0.00,,OVC011,0.00,VWS V14.01,2013-02-18 16:52:00,
2013-02-18 10:57:00,31.9,25.5,29.48,West,274,0.0,15.0,77,0.00,,OVC011,0.00,VWS V14.01,2013-02-18 16:57:00,
2013-02-18 11:00:00,32.2,25.8,29.48,WSW,244,0.0,15.0,77,0.00,,,0.00,VWS V15.00,2013-02-18 17:00:00,
2013-02-18 11:02:00,32.2,25.8,29.48,WSW,252,13.0,14.0,77,0.00,,OVC009,0.00,VWS V14.01,2013-02-18 17:02:00,
2013-02-18 11:07:00,32.2,25.8,29.48,WSW,248,7.0,14.0,77,0.00,,OVC009,0.00,VWS V14.01,2013-02-18 17:07:00,
2013-02-18 11:12:00,32.2,25.8,29.48,West,267,10.0,14.0,77,0.00,,OVC009,0.00,VWS V14.01,2013-02-18 17:12:00,
2013-02-18 11:15:00,32.1,26.0,29.49,West,266,6.0,14.0,78,0.00,,,0.00,VWS V15.00,2013-02-18 17:15:00,
2013-02-18 11:18:00,32.1,26.0,29.49,West,265,6.0,10.0,78,0.00,,OVC009,0.00,VWS V14.01,2013-02-18 17:18:00,
2013-02-18 11:23:00,31.8,25.7,29.49,WSW,258,10.0,14.0,78,0.00,,OVC009,0.00,VWS V14.01,2013-02-18 17:23:00,
2013-02-18 11:28:00,31.8,25.7,29.49,West,263,3.0,14.0,78,0.00,,OVC009,0.00,VWS V14.01,2013-02-18 17:28:00,
2013-02-18 11:30:00,31.8,25.7,29.49,West,281,6.0,14.0,78,0.00,,,0.00,VWS V15.00,2013-02-18 17:30:00,
2013-02-18 11:33:00,31.9,25.8,29.49,West,268,2.0,9.0,78,0.00,,OVC014,0.00,VWS V14.01,2013-02-18 17:33:00,
2013-02-18 11:38:00,32.1,26.0,29.49,WSW,246,13.0,14.0,78,0.00,,OVC014,0.00,VWS V14.01,2013-02-18 17:38:00,
2013-02-18 11:43:00,32.1,25.7,29.49,West,261,12.0,14.0,77,0.00,,OVC014,0.00,VWS V14.01,2013-02-18 17:43:00,
2013-02-18 11:45:00,31.9,25.8,29.50,West,271,4.0,14.0,78,0.00,,,0.00,VWS V15.00,2013-02-18 17:45:00,
2013-02-18 11:48:00,31.9,25.8,29.50,WNW,286,5.0,11.0,78,0.00,,OVC014,0.00,VWS V14.01,2013-02-18 17:48:00,
2013-02-18 11:53:00,32.2,25.8,29.50,WNW,288,8.0,11.0,77,0.00,,OVC014,0.00,VWS V14.01,2013-02-18 17:53:00,
2013-02-18 11:59:00,32.4,26.0,29.50,WNW,292,8.0,12.0,77,0.00,,OVC014,0.00,VWS V14.01,2013-02-18 17:59:00,
2013-02-18 12:00:00,32.5,26.1,29.49,NW,310,0.0,12.0,77,0.00,,,0.00,VWS V15.00,2013-02-18 18:00:00,
2013-02-18 12:04:00,32.7,26.3,29.49,NW,310,0.0,5.0,77,0.00,,OVC016,0.00,VWS V14.01,2013-02-18 18:04:00,
2013-02-18 12:09:00,32.7,26.3,29.49,West,280,7.0,11.0,77,0.00,,OVC016,0.00,VWS V14.01,2013-02-18 18:09:00,
2013-02-18 12:14:00,32.5,26.4,29.49,West,280,2.0,13.0,78,0.00,,OVC016,0.00,VWS V14.01,2013-02-18 18:14:00,
2013-02-18 12:15:00,32.5,26.7,29.49,WNW,282,11.0,13.0,79,0.00,,,0.00,VWS V15.00,2013-02-18 18:15:00,
2013-02-18 12:19:00,32.4,26.6,29.49,West,274,6.0,13.0,79,0.00,,OVC016,0.00,VWS V14.01,2013-02-18 18:19:00,
2013-02-18 12:24:00,32.2,26.7,29.49,West,274,4.0,14.0,80,0.00,,OVC016,0.00,VWS V14.01,2013-02-18 18:24:00,
2013-02-18 12:29:00,31.8,26.6,29.49,WNW,293,12.0,16.0,81,0.00,,OVC016,0.00,VWS V14.01,2013-02-18 18:29:00,
2013-02-18 12:30:00,31.8,26.9,29.49,West,274,14.0,17.0,82,0.00,,,0.00,VWS V15.00,2013-02-18 18:30:00,
2013-02-18 12:34:00,31.6,26.8,29.49,WSW,258,8.0,14.0,82,0.00,,OVC018,0.00,VWS V14.01,2013-02-18 18:34:00,
2013-02-18 12:39:00,31.5,26.6,29.49,WNW,292,4.0,20.0,82,0.00,,OVC018,0.00,VWS V14.01,2013-02-18 18:39:00,
2013-02-18 12:44:00,31.2,26.6,29.49,NW,312,8.0,20.0,83,0.00,,OVC011,0.00,VWS V14.01,2013-02-18 18:44:00,
2013-02-18 12:45:00,31.2,26.6,29.49,WNW,295,0.0,20.0,83,0.00,,,0.00,VWS V15.00,2013-02-18 18:45:00,
2013-02-18 12:49:00,31.2,26.6,29.49,WNW,285,7.0,11.0,83,0.00,,OVC011,0.00,VWS V14.01,2013-02-18 18:49:00,
2013-02-18 12:54:00,31.3,26.5,29.49,WNW,292,4.0,15.0,82,0.00,,OVC011,0.00,VWS V14.01,2013-02-18 18:54:00,
2013-02-18 12:59:00,31.3,25.9,29.49,WNW,293,6.0,16.0,80,0.00,,OVC011,0.00,VWS V14.01,2013-02-18 18:59:00,
2013-02-18 13:00:00,31.3,26.2,29.49,WNW,293,11.0,16.0,81,0.00,,,0.00,VWS V15.00,2013-02-18 19:00:00,
2013-02-18 13:04:00,31.5,26.0,29.49,WNW,286,4.0,18.0,80,0.00,,OVC011,0.00,VWS V14.01,2013-02-18 19:04:00,
2013-02-18 13:10:00,31.5,25.4,29.49,NW,310,13.0,18.0,78,0.00,,OVC011,0.00,VWS V14.01,2013-02-18 19:10:00,
2013-02-18 13:15:00,31.5,24.8,29.49,West,272,4.0,18.0,76,0.00,,OVC011,0.00,VWS V14.01,2013-02-18 19:15:00,
2013-02-18 13:20:00,31.2,23.6,29.48,WNW,288,10.0,20.0,73,0.00,,OVC011,0.00,VWS V14.01,2013-02-18 19:20:00,
2013-02-18 13:25:00,31.0,23.7,29.48,West,270,5.0,20.0,74,0.00,,OVC011,0.00,VWS V14.01,2013-02-18 19:25:00,
2013-02-18 13:30:00,30.9,23.3,29.48,WNW,285,8.0,20.0,73,0.00,,OVC011,0.00,VWS V14.01,2013-02-18 19:30:00,
2013-02-18 13:35:00,30.4,22.5,29.49,West,265,3.0,15.0,72,0.00,,OVC015,0.00,VWS V14.01,2013-02-18 19:35:00,
2013-02-18 13:40:00,30.3,22.4,29.49,WNW,288,0.0,16.0,72,0.00,,OVC015,0.00,VWS V14.01,2013-02-18 19:40:00,
2013-02-18 13:45:00,29.8,21.9,29.49,WNW,291,10.0,21.0,72,0.00,,OVC015,0.00,VWS V14.01,2013-02-18 19:45:00,
2013-02-18 13:50:00,29.5,21.3,29.50,WSW,257,13.0,17.0,71,0.00,,OVC015,0.00,VWS V14.01,2013-02-18 19:50:00,
2013-02-18 13:55:00,29.3,21.1,29.50,WNW,288,12.0,17.0,71,0.00,,OVC015,0.00,VWS V14.01,2013-02-18 19:55:00,
2013-02-18 14:00:00,28.8,20.6,29.51,West,270,14.0,19.0,71,0.00,,OVC015,0.00,VWS V14.01,2013-02-18 20:00:00,
2013-02-18 14:05:00,28.7,20.2,29.51,WNW,291,10.0,20.0,70,0.00,,OVC017,0.00,VWS V14.01,2013-02-18 20:05:00,
2013-02-18 14:10:00,28.8,20.3,29.51,WNW,293,4.0,21.0,70,0.00,,OVC017,0.00,VWS V14.01,2013-02-18 20:10:00,
2013-02-18 14:15:00,28.7,19.8,29.51,West,270,2.0,21.0,69,0.00,,,0.00,VWS V15.00,2013-02-18 20:15:00,
2013-02-18 14:16:00,28.7,19.8,29.51,WNW,285,9.0,21.0,69,0.00,,OVC017,0.00,VWS V14.01,2013-02-18 20:16:00,
2013-02-18 14:21:00,28.7,19.8,29.51,WNW,296,11.0,15.0,69,0.00,,OVC017,0.00,VWS V14.01,2013-02-18 20:21:00,
2013-02-18 14:26:00,28.7,19.8,29.51,WNW,303,4.0,15.0,69,0.00,,OVC017,0.00,VWS V14.01,2013-02-18 20:26:00,
2013-02-18 14:30:00,28.2,19.4,29.52,WNW,292,12.0,22.0,69,0.00,,,0.00,VWS V15.00,2013-02-18 20:30:00,
2013-02-18 14:31:00,28.4,19.2,29.52,WNW,299,14.0,22.0,68,0.00,,OVC017,0.00,VWS V14.01,2013-02-18 20:31:00,
2013-02-18 14:36:00,28.1,19.3,29.52,WNW,292,2.0,18.0,69,0.00,,OVC019,0.00,VWS V14.01,2013-02-18 20:36:00,
2013-02-18 14:41:00,27.8,19.0,29.52,WNW,296,4.0,18.0,69,0.00,,OVC019,0.00,VWS V14.01,2013-02-18 20:41:00,
2013-02-18 14:45:00,27.5,18.7,29.53,WNW,288,14.0,18.0,69,0.00,,,0.00,VWS V15.00,2013-02-18 20:45:00,
2013-02-18 14:46:00,27.5,18.7,29.53,WNW,288,14.0,18.0,69,0.00,,OVC019,0.00,VWS V14.01,2013-02-18 20:46:00,
2013-02-18 14:51:00,27.5,19.0,29.53,WNW,286,10.0,18.0,70,0.00,,OVC019,0.00,VWS V14.01,2013-02-18 20:51:00,
2013-02-18 14:56:00,27.5,18.7,29.53,NW,316,5.0,18.0,69,0.00,,OVC019,0.00,VWS V14.01,2013-02-18 20:56:00,
2013-02-18 15:00:00,27.3,18.5,29.54,WNW,300,17.0,21.0,69,0.00,,,0.00,VWS V15.00,2013-02-18 21:00:00,
2013-02-18 15:02:00,27.3,18.5,29.54,WNW,292,16.0,17.0,69,0.00,,OVC019,0.00,VWS V14.01,2013-02-18 21:02:00,
2013-02-18 15:07:00,26.9,18.4,29.54,WNW,297,15.0,17.0,70,0.00,,OVC019,0.00,VWS V14.01,2013-02-18 21:07:00,
2013-02-18 15:12:00,26.6,17.8,29.54,West,274,12.0,19.0,69,0.00,,OVC017,0.00,VWS V14.01,2013-02-18 21:12:00,
2013-02-18 15:15:00,26.3,16.9,29.55,NW,305,11.0,22.0,67,0.00,,,0.00,VWS V15.00,2013-02-18 21:15:00,
2013-02-18 15:17:00,26.3,16.9,29.55,WNW,284,14.0,20.0,67,0.00,,OVC017,0.00,VWS V14.01,2013-02-18 21:17:00,
2013-02-18 15:22:00,26.0,17.2,29.55,WNW,300,4.0,20.0,69,0.00,,OVC017,0.00,VWS V14.01,2013-02-18 21:22:00,
2013-02-18 15:27:00,25.7,17.0,29.55,WNW,291,11.0,20.0,69,0.00,,OVC017,0.00,VWS V14.01,2013-02-18 21:27:00,
2013-02-18 15:30:00,25.6,16.9,29.56,WNW,293,10.0,20.0,69,0.00,,,0.00,VWS V15.00,2013-02-18 21:30:00,
2013-02-18 15:32:00,25.6,16.9,29.56,WNW,286,3.0,11.0,69,0.00,,OVC019,0.00,VWS V14.01,2013-02-18 21:32:00,
2013-02-18 15:39:00,25.6,17.5,29.56,West,277,12.0,15.0,71,0.00,,OVC019,0.00,VWS V14.01,2013-02-18 21:39:00,
2013-02-18 15:44:00,25.3,16.6,29.56,West,280,14.0,17.0,69,0.00,,OVC019,0.00,VWS V14.01,2013-02-18 21:44:00,
2013-02-18 15:45:00,25.1,16.0,29.56,NW,304,2.0,20.0,68,0.00,,,0.00,VWS V15.00,2013-02-18 21:45:00,
2013-02-18 15:49:00,25.0,16.3,29.56,WNW,290,12.0,15.0,69,0.00,,OVC019,0.00,VWS V14.01,2013-02-18 21:49:00,
2013-02-18 15:54:00,24.5,15.8,29.56,WNW,300,8.0,19.0,69,0.00,,OVC019,0.00,VWS V14.01,2013-02-18 21:54:00,
2013-02-18 15:59:00,24.5,16.1,29.56,WNW,290,14.0,19.0,70,0.00,,OVC019,0.00,VWS V14.01,2013-02-18 21:59:00,
2013-02-18 16:00:00,24.4,15.7,29.57,WNW,291,10.0,19.0,69,0.00,,,0.00,VWS V15.00,2013-02-18 22:00:00,
2013-02-18 16:04:00,24.2,15.5,29.57,West,277,11.0,15.0,69,0.00,,OVC019,0.00,VWS V14.01,2013-02-18 22:04:00,
2013-02-18 16:09:00,23.9,15.2,29.57,WNW,291,17.0,21.0,69,0.00,,OVC019,0.00,VWS V14.01,2013-02-18 22:09:00,
2013-02-18 16:14:00,23.6,14.9,29.57,NW,305,3.0,21.0,69,0.00,,OVC019,0.00,VWS V14.01,2013-02-18 22:14:00,
2013-02-18 16:15:00,23.5,14.8,29.58,WNW,284,11.0,21.0,69,0.00,,,0.00,VWS V15.00,2013-02-18 22:15:00,
2013-02-18 16:19:00,23.5,14.8,29.58,WNW,287,5.0,14.0,69,0.00,,OVC019,0.00,VWS V14.01,2013-02-18 22:19:00,
2013-02-18 16:24:00,23.2,14.6,29.58,West,273,11.0,17.0,69,0.00,,OVC019,0.00,VWS V14.01,2013-02-18 22:24:00,
2013-02-18 16:30:00,22.9,14.3,29.59,West,266,15.0,19.0,69,0.00,,,0.00,VWS V15.00,2013-02-18 22:30:00,
2013-02-18 16:31:00,22.9,14.3,29.59,WNW,291,15.0,17.0,69,0.00,,OVC019,0.00,VWS V14.01,2013-02-18 22:31:00,
2013-02-18 16:36:00,22.7,14.1,29.59,WNW,290,13.0,15.0,69,0.00,,OVC019,0.00,VWS V14.01,2013-02-18 22:36:00,
2013-02-18 16:41:00,22.5,14.2,29.59,WNW,293,15.0,18.0,70,0.00,,OVC019,0.00,VWS V14.01,2013-02-18 22:41:00,
2013-02-18 16:45:00,22.4,14.1,29.59,WNW,287,16.0,18.0,70,0.00,,,0.00,VWS V15.00,2013-02-18 22:45:00,
2013-02-18 16:46:00,22.4,14.1,29.59,West,277,11.0,18.0,70,0.00,,OVC019,0.00,VWS V14.01,2013-02-18 22:46:00,
2013-02-18 16:51:00,22.2,13.9,29.59,West,281,8.0,17.0,70,0.00,,OVC019,0.00,VWS V14.01,2013-02-18 22:51:00,
2013-02-18 16:56:00,22.1,13.8,29.59,WNW,294,12.0,17.0,70,0.00,,OVC019,0.00,VWS V14.01,2013-02-18 22:56:00,
2013-02-18 17:00:00,22.1,13.8,29.59,WNW,285,3.0,17.0,70,0.00,,,0.00,VWS V15.00,2013-02-18 23:00:00,
2013-02-18 17:01:00,22.1,13.8,29.59,West,281,10.0,17.0,70,0.00,,OVC019,0.00,VWS V14.01,2013-02-18 23:01:00,
2013-02-18 17:06:00,22.1,14.1,29.59,WNW,288,13.0,19.0,71,0.00,,OVC019,0.00,VWS V14.01,2013-02-18 23:06:00,
2013-02-18 17:11:00,21.9,13.6,29.59,West,275,4.0,19.0,70,0.00,,OVC019,0.00,VWS V14.01,2013-02-18 23:11:00,
2013-02-18 17:15:00,21.8,13.9,29.60,WNW,291,7.0,19.0,71,0.00,,,0.00,VWS V15.00,2013-02-18 23:15:00,
2013-02-18 17:16:00,21.8,13.9,29.60,WNW,292,5.0,19.0,71,0.00,,OVC019,0.00,VWS V14.01,2013-02-18 23:16:00,
2013-02-18 17:21:00,21.4,13.5,29.60,West,281,12.0,16.0,71,0.00,,OVC019,0.00,VWS V14.01,2013-02-18 23:21:00,
2013-02-18 17:26:00,21.3,13.4,29.60,WNW,286,9.0,16.0,71,0.00,,OVC019,0.00,VWS V14.01,2013-02-18 23:26:00,
2013-02-18 17:30:00,21.3,13.4,29.61,WNW,291,14.0,16.0,71,0.00,,,0.00,VWS V15.00,2013-02-18 23:30:00,
2013-02-18 17:31:00,21.3,13.4,29.61,WNW,291,14.0,16.0,71,0.00,,OVC019,0.00,VWS V14.01,2013-02-18 23:31:00,
2013-02-18 17:36:00,21.1,13.5,29.61,WNW,292,9.0,14.0,72,0.00,,OVC019,0.00,VWS V14.01,2013-02-18 23:36:00,
2013-02-18 17:43:00,21.1,13.5,29.61,NW,310,7.0,14.0,72,0.00,,OVC019,0.00,VWS V14.01,2013-02-18 23:43:00,
2013-02-18 17:45:00,21.3,13.7,29.61,WNW,293,10.0,15.0,72,0.00,,,0.00,VWS V15.00,2013-02-18 23:45:00,
2013-02-18 17:48:00,21.3,13.7,29.61,WNW,291,10.0,16.0,72,0.00,,OVC019,0.00,VWS V14.01,2013-02-18 23:48:00,
2013-02-18 17:53:00,21.3,13.7,29.61,WNW,302,10.0,19.0,72,0.00,,OVC019,0.00,VWS V14.01,2013-02-18 23:53:00,
2013-02-18 17:58:00,21.1,13.5,29.61,NW,304,16.0,23.0,72,0.00,,OVC019,0.00,VWS V14.01,2013-02-18 23:58:00,
2013-02-18 18:00:00,21.0,13.1,29.62,NW,305,13.0,23.0,71,0.00,,,0.00,VWS V15.00,2013-02-19 00:00:00,
2013-02-18 18:03:00,20.8,12.9,29.62,WNW,297,13.0,17.0,71,0.00,,OVC019,0.00,VWS V14.01,2013-02-19 00:03:00,
2013-02-18 18:08:00,20.6,12.7,29.62,WNW,294,19.0,24.0,71,0.00,,OVC019,0.00,VWS V14.01,2013-02-19 00:08:00,
2013-02-18 18:14:00,20.3,12.1,29.62,NW,309,4.0,24.0,70,0.00,,OVC019,0.00,VWS V14.01,2013-02-19 00:14:00,
2013-02-18 18:15:00,20.2,12.6,29.63,WNW,291,6.0,24.0,72,0.00,,,0.00,VWS V15.00,2013-02-19 00:15:00,
2013-02-18 18:19:00,20.2,12.3,29.63,WNW,303,10.0,25.0,71,0.00,,OVC019,0.00,VWS V14.01,2013-02-19 00:19:00,
2013-02-18 18:24:00,19.9,12.3,29.63,WNW,293,16.0,25.0,72,0.00,,OVC019,0.00,VWS V14.01,2013-02-19 00:24:00,
2013-02-18 18:29:00,19.7,12.1,29.63,WNW,292,7.0,25.0,72,0.00,,OVC019,0.00,VWS V14.01,2013-02-19 00:29:00,
2013-02-18 18:30:00,19.7,12.1,29.63,WNW,288,5.0,25.0,72,0.00,,,0.00,VWS V15.00,2013-02-19 00:30:00,
2013-02-18 18:34:00,19.5,12.0,29.63,WNW,292,19.0,25.0,72,0.00,,OVC021,0.00,VWS V14.01,2013-02-19 00:34:00,
2013-02-18 18:39:00,19.4,11.9,29.63,NW,316,9.0,25.0,72,0.00,,OVC021,0.00,VWS V14.01,2013-02-19 00:39:00,
2013-02-18 18:44:00,19.2,11.7,29.63,NW,309,10.0,27.0,72,0.00,,OVC021,0.00,VWS V14.01,2013-02-19 00:44:00,
2013-02-18 18:45:00,19.1,11.6,29.63,NW,312,11.0,27.0,72,0.00,,,0.00,VWS V15.00,2013-02-19 00:45:00,
2013-02-18 18:49:00,19.1,11.6,29.63,WNW,293,16.0,26.0,72,0.00,,OVC021,0.00,VWS V14.01,2013-02-19 00:49:00,
2013-02-18 18:54:00,18.9,11.4,29.63,WNW,303,11.0,26.0,72,0.00,,OVC021,0.00,VWS V14.01,2013-02-19 00:54:00,
2013-02-18 18:59:00,18.8,11.3,29.63,NW,317,22.0,26.0,72,0.00,,OVC021,0.00,VWS V14.01,2013-02-19 00:59:00,
2013-02-18 19:00:00,18.8,11.3,29.63,NW,322,14.0,26.0,72,0.00,,,0.00,VWS V15.00,2013-02-19 01:00:00,
2013-02-18 19:04:00,18.6,10.8,29.63,NW,307,16.0,22.0,71,0.00,,OVC021,0.00,VWS V14.01,2013-02-19 01:04:00,
2013-02-18 19:09:00,18.4,10.3,29.63,NW,310,10.0,23.0,70,0.00,,OVC021,0.00,VWS V14.01,2013-02-19 01:09:00,
2013-02-18 19:14:00,18.3,10.2,29.63,NW,325,13.0,25.0,70,0.00,,OVC021,0.00,VWS V14.01,2013-02-19 01:14:00,
2013-02-18 19:15:00,18.1,9.7,29.64,NW,312,18.0,27.0,69,0.00,,,0.00,VWS V15.00,2013-02-19 01:15:00,
2013-02-18 19:19:00,18.0,9.6,29.64,WNW,296,10.0,27.0,69,0.00,,OVC021,0.00,VWS V14.01,2013-02-19 01:19:00,
2013-02-18 19:25:00,17.8,9.4,29.64,NW,307,12.0,27.0,69,0.00,,OVC021,0.00,VWS V14.01,2013-02-19 01:25:00,
2013-02-18 19:30:00,17.7,9.3,29.64,NW,324,21.0,27.0,69,0.00,,OVC021,0.00,VWS V14.01,2013-02-19 01:30:00,
2013-02-18 19:35:00,17.5,9.1,29.65,WNW,292,21.0,21.0,69,0.00,,OVC023,0.00,VWS V14.01,2013-02-19 01:35:00,
2013-02-18 19:41:00,17.5,9.1,29.65,NW,312,11.0,21.0,69,0.00,,OVC023,0.00,VWS V14.01,2013-02-19 01:41:00,
2013-02-18 19:45:00,17.3,8.9,29.65,NW,305,7.0,21.0,69,0.00,,,0.00,VWS V15.00,2013-02-19 01:45:00,
2013-02-18 19:46:00,17.3,8.9,29.65,NW,304,11.0,21.0,69,0.00,,OVC023,0.00,VWS V14.01,2013-02-19 01:46:00,
2013-02-18 19:51:00,17.3,8.9,29.65,NW,310,14.0,19.0,69,0.00,,OVC023,0.00,VWS V14.01,2013-02-19 01:51:00,
2013-02-18 19:56:00,17.2,8.5,29.65,NW,307,4.0,21.0,68,0.00,,OVC023,0.00,VWS V14.01,2013-02-19 01:56:00,
2013-02-18 20:00:00,17.0,8.6,29.66,WNW,293,18.0,21.0,69,0.00,,,0.00,VWS V15.00,2013-02-19 02:00:00,
2013-02-18 20:01:00,17.0,8.6,29.66,NW,315,14.0,21.0,69,0.00,,OVC023,0.00,VWS V14.01,2013-02-19 02:01:00,
2013-02-18 20:06:00,16.9,8.2,29.66,WNW,303,12.0,21.0,68,0.00,,OVC023,0.00,VWS V14.01,2013-02-19 02:06:00,
2013-02-18 20:11:00,16.7,8.3,29.66,NW,310,13.0,21.0,69,0.00,,OVC023,0.00,VWS V14.01,2013-02-19 02:11:00,
2013-02-18 20:15:00,16.7,8.3,29.67,NW,315,9.0,23.0,69,0.00,,,0.00,VWS V15.00,2013-02-19 02:15:00,
2013-02-18 20:16:00,16.7,8.3,29.67,NW,315,9.0,23.0,69,0.00,,OVC023,0.00,VWS V14.01,2013-02-19 02:16:00,
2013-02-18 20:22:00,16.5,8.8,29.67,NW,315,12.0,19.0,71,0.00,,OVC023,0.00,VWS V14.01,2013-02-19 02:22:00,
2013-02-18 20:27:00,16.4,8.7,29.67,NW,306,19.0,20.0,71,0.00,,OVC023,0.00,VWS V14.01,2013-02-19 02:27:00,
2013-02-18 20:30:00,16.2,8.5,29.67,NW,309,9.0,23.0,71,0.00,,,0.00,VWS V15.00,2013-02-19 02:30:00,
2013-02-18 20:32:00,16.2,8.5,29.67,WNW,293,23.0,28.0,71,0.00,,OVC029,0.00,VWS V14.01,2013-02-19 02:32:00,
2013-02-18 20:37:00,16.1,8.7,29.67,NW,312,14.0,28.0,72,0.00,,OVC029,0.00,VWS V14.01,2013-02-19 02:37:00,
2013-02-18 20:43:00,15.9,8.8,29.67,NW,310,5.0,28.0,73,0.00,,OVC029,0.00,VWS V14.01,2013-02-19 02:43:00,
2013-02-18 20:45:00,15.7,8.6,29.67,NW,310,9.0,28.0,73,0.00,,,0.00,VWS V15.00,2013-02-19 02:45:00,
2013-02-18 20:48:00,15.7,8.6,29.67,NW,312,17.0,17.0,73,0.00,,OVC029,0.00,VWS V14.01,2013-02-19 02:48:00,
2013-02-18 20:53:00,15.4,8.3,29.67,NW,312,14.0,20.0,73,0.00,,OVC029,0.00,VWS V14.01,2013-02-19 02:53:00,
2013-02-18 20:58:00,15.1,8.3,29.67,WNW,300,13.0,21.0,74,0.00,,OVC029,0.00,VWS V14.01,2013-02-19 02:58:00,
2013-02-18 21:00:00,15.1,8.6,29.68,WNW,303,11.0,21.0,75,0.00,,,0.00,VWS V15.00,2013-02-19 03:00:00,
2013-02-18 21:04:00,15.1,8.6,29.68,NW,317,6.0,17.0,75,0.00,,OVC031,0.00,VWS V14.01,2013-02-19 03:04:00,
2013-02-18 21:09:00,14.8,8.6,29.68,WNW,293,15.0,19.0,76,0.00,,OVC031,0.00,VWS V14.01,2013-02-19 03:09:00,
2013-02-18 21:15:00,14.6,8.1,29.68,NW,310,6.0,22.0,75,0.00,,,0.00,VWS V15.00,2013-02-19 03:15:00,
2013-02-18 21:16:00,14.6,8.4,29.68,NW,319,12.0,22.0,76,0.00,,OVC031,0.00,VWS V14.01,2013-02-19 03:16:00,
2013-02-18 21:21:00,14.4,8.2,29.68,NW,312,14.0,19.0,76,0.00,,OVC031,0.00,VWS V14.01,2013-02-19 03:21:00,
2013-02-18 21:26:00,14.3,7.8,29.68,NW,322,15.0,20.0,75,0.00,,OVC031,0.00,VWS V14.01,2013-02-19 03:26:00,
2013-02-18 21:30:00,14.1,7.9,29.68,NW,313,11.0,20.0,76,0.00,,,0.00,VWS V15.00,2013-02-19 03:30:00,
2013-02-18 21:31:00,14.1,7.9,29.68,NW,322,7.0,20.0,76,0.00,,OVC031,0.00,VWS V14.01,2013-02-19 03:31:00,
2013-02-18 21:36:00,14.1,7.9,29.68,NW,307,9.0,18.0,76,0.00,,OVC049,0.00,VWS V14.01,2013-02-19 03:36:00,
2013-02-18 21:42:00,14.0,7.6,29.68,NW,312,18.0,29.0,75,0.00,,OVC049,0.00,VWS V14.01,2013-02-19 03:42:00,
2013-02-18 21:45:00,14.0,6.9,29.68,NNW,341,5.0,29.0,73,0.00,,,0.00,VWS V15.00,2013-02-19 03:45:00,
2013-02-18 21:47:00,14.0,7.0,29.68,NW,310,15.0,15.0,73,0.00,,OVC049,0.00,VWS V14.01,2013-02-19 03:47:00,
2013-02-18 21:52:00,13.8,6.5,29.68,NW,326,15.0,28.0,72,0.00,,OVC049,0.00,VWS V14.01,2013-02-19 03:52:00,
2013-02-18 21:57:00,13.6,6.0,29.68,NW,308,11.0,28.0,71,0.00,,OVC049,0.00,VWS V14.01,2013-02-19 03:57:00,
2013-02-18 22:00:00,13.6,6.3,29.68,NNW,333,15.0,28.0,72,0.00,,,0.00,VWS V15.00,2013-02-19 04:00:00,
2013-02-18 22:02:00,13.6,6.3,29.68,NW,325,11.0,15.0,72,0.00,,OVC047,0.00,VWS V14.01,2013-02-19 04:02:00,
2013-02-18 22:07:00,13.6,6.3,29.68,NW,313,18.0,18.0,72,0.00,,OVC047,0.00,VWS V14.01,2013-02-19 04:07:00,
2013-02-18 22:12:00,13.5,6.2,29.68,NW,321,13.0,18.0,72,0.00,,OVC047,0.00,VWS V14.01,2013-02-19 04:12:00,
2013-02-18 22:15:00,13.5,6.2,29.68,NNW,336,5.0,23.0,72,0.00,,,0.00,VWS V15.00,2013-02-19 04:15:00,
2013-02-18 22:19:00,13.3,5.7,29.68,NW,310,12.0,21.0,71,0.00,,OVC047,0.00,VWS V14.01,2013-02-19 04:19:00,
2013-02-18 22:24:00,13.1,5.2,29.68,WNW,303,16.0,26.0,70,0.00,,OVC047,0.00,VWS V14.01,2013-02-19 04:24:00,
2013-02-18 22:29:00,12.9,4.7,29.68,NW,324,14.0,26.0,69,0.00,,OVC047,0.00,VWS V14.01,2013-02-19 04:29:00,
2013-02-18 22:30:00,12.9,4.7,29.69,NNW,336,11.0,26.0,69,0.00,,,0.00,VWS V15.00,2013-02-19 04:30:00,
2013-02-18 22:35:00,12.6,4.4,29.69,NW,326,25.0,25.0,69,0.00,,OVC065,0.00,VWS V14.01,2013-02-19 04:35:00,
2013-02-18 22:40:00,12.3,3.8,29.69,NNW,329,20.0,29.0,68,0.00,,OVC065,0.00,VWS V14.01,2013-02-19 04:40:00,
2013-02-18 22:45:00,12.1,3.9,29.69,NNW,344,14.0,29.0,69,0.00,,OVC065,0.00,VWS V14.01,2013-02-19 04:45:00,
2013-02-18 22:50:00,11.9,3.1,29.70,NNW,337,26.0,28.0,67,0.00,,OVC065,0.00,VWS V14.01,2013-02-19 04:50:00,
2013-02-18 22:55:00,11.7,2.9,29.70,NW,323,17.0,28.0,67,0.00,,OVC065,0.00,VWS V14.01,2013-02-19 04:55:00,
2013-02-18 23:00:00,11.6,2.5,29.70,NW,324,14.0,28.0,66,0.00,,,0.00,VWS V15.00,2013-02-19 05:00:00,
2013-02-18 23:01:00,11.6,2.8,29.70,NW,322,21.0,28.0,67,0.00,,OVC065,0.00,VWS V14.01,2013-02-19 05:01:00,
2013-02-18 23:03:00,11.6,2.8,29.70,NNW,338,16.0,25.0,67,0.00,,OVC065,0.00,VWS V14.01,2013-02-19 05:03:00,
2013-02-18 23:05:00,11.4,2.6,29.70,NW,312,19.0,27.0,67,0.00,,OVC065,0.00,VWS V14.01,2013-02-19 05:05:00,
2013-02-18 23:10:00,11.4,2.6,29.70,NNW,334,10.0,27.0,67,0.00,,OVC065,0.00,VWS V14.01,2013-02-19 05:10:00,
2013-02-18 23:15:00,11.2,2.4,29.70,NW,321,9.0,27.0,67,0.00,,OVC065,0.00,VWS V14.01,2013-02-19 05:15:00,
2013-02-18 23:20:00,11.1,2.3,29.71,NNW,327,13.0,24.0,67,0.00,,OVC065,0.00,VWS V14.01,2013-02-19 05:20:00,
2013-02-18 23:25:00,10.9,2.1,29.71,NW,323,15.0,25.0,67,0.00,,OVC065,0.00,VWS V14.01,2013-02-19 05:25:00,
2013-02-18 23:30:00,10.9,2.1,29.71,NNW,343,14.0,25.0,67,0.00,,OVC065,0.00,VWS V14.01,2013-02-19 05:30:00,
2013-02-18 23:35:00,10.7,1.9,29.71,NW,311,20.0,25.0,67,0.00,,OVC080,0.00,VWS V14.01,2013-02-19 05:35:00,
2013-02-18 23:40:00,10.5,1.7,29.71,NNW,329,21.0,25.0,67,0.00,,OVC080,0.00,VWS V14.01,2013-02-19 05:40:00,
2013-02-18 23:45:00,10.4,1.3,29.71,NNW,333,18.0,27.0,66,0.00,,OVC080,0.00,VWS V14.01,2013-02-19 05:45:00,
2013-02-18 23:50:00,10.2,1.1,29.73,WNW,296,14.0,21.0,66,0.00,,OVC080,0.00,VWS V14.01,2013-02-19 05:50:00,
2013-02-18 23:55:00,10.0,1.2,29.73,NW,308,11.0,22.0,67,0.00,,OVC080,0.00,VWS V14.01,2013-02-19 05:55:00,